createdAt,value
2018-01-22T00:00:47.547Z,16.53
2018-01-22T00:03:15.847Z,18.27
2018-01-22T00:05:44.171Z,11.67
2018-01-22T00:08:12.511Z,13.43
2018-01-22T00:10:40.836Z,20.53
2018-01-22T00:13:09.192Z,18.40
2018-01-22T00:15:37.523Z,25.50
2018-01-22T00:18:05.839Z,22.30
2018-01-22T00:20:34.915Z,21.60
2018-01-22T00:23:03.258Z,22.87
2018-01-22T00:25:31.586Z,23.13
2018-01-22T00:27:59.924Z,25.60
2018-01-22T00:30:28.223Z,13.13
2018-01-22T00:32:56.542Z,20.47
2018-01-22T00:35:25.630Z,17.90
2018-01-22T00:37:54.715Z,15.00
2018-01-22T00:40:23.066Z,13.67
2018-01-22T00:42:51.374Z,12.17
2018-01-22T00:45:19.804Z,11.60
2018-01-22T00:47:48.108Z,12.40
2018-01-22T00:50:16.458Z,15.63
2018-01-22T00:52:44.753Z,13.00
2018-01-22T00:55:13.108Z,14.20
2018-01-22T00:57:41.411Z,15.13
2018-01-22T01:00:09.730Z,14.50
2018-01-22T01:02:38.115Z,12.50
2018-01-22T01:05:07.191Z,12.03
2018-01-22T01:07:35.525Z,14.60
2018-01-22T01:10:03.826Z,14.03
2018-01-22T01:12:32.164Z,18.07
2018-01-22T01:15:00.502Z,19.10
2018-01-22T01:17:28.855Z,18.73
2018-01-22T01:19:57.163Z,21.03
2018-01-22T01:22:25.515Z,15.30
2018-01-22T01:24:54.030Z,23.97
2018-01-22T01:27:22.362Z,14.43
2018-01-22T01:29:50.679Z,15.80
2018-01-22T01:32:19.011Z,18.27
2018-01-22T01:34:47.356Z,19.93
2018-01-22T01:37:15.809Z,20.20
2018-01-22T01:39:44.157Z,16.70
2018-01-22T01:42:12.462Z,22.70
2018-01-22T01:44:40.794Z,20.97
2018-01-22T01:47:09.868Z,11.50
2018-01-22T01:49:38.969Z,15.87
2018-01-22T01:52:07.320Z,17.43
2018-01-22T01:54:35.650Z,19.97
2018-01-22T01:57:03.967Z,18.17
2018-01-22T01:59:32.310Z,17.00
2018-01-22T02:02:00.629Z,15.50
2018-01-22T02:04:28.946Z,16.83
2018-01-22T02:06:58.025Z,17.73
2018-01-22T02:09:26.369Z,17.00
2018-01-22T02:11:54.683Z,14.00
2018-01-22T02:14:23.807Z,17.30
2018-01-22T02:16:52.112Z,15.70
2018-01-22T02:19:20.410Z,18.37
2018-01-22T02:21:48.740Z,19.13
2018-01-22T02:24:17.049Z,18.50
2018-01-22T02:26:45.388Z,14.57
2018-01-22T02:29:13.775Z,23.60
2018-01-22T02:31:42.122Z,17.83
2018-01-22T02:34:10.437Z,12.50
2018-01-22T02:36:38.787Z,18.33
2018-01-22T02:39:07.862Z,21.43
2018-01-22T02:41:36.201Z,19.10
2018-01-22T02:44:05.301Z,18.33
2018-01-22T02:46:33.632Z,19.03
2018-01-22T02:49:01.970Z,14.33
2018-01-22T02:51:30.356Z,21.13
2018-01-22T02:53:58.791Z,17.80
2018-01-22T02:56:27.882Z,16.80
2018-01-22T02:58:56.224Z,25.67
2018-01-22T03:01:24.537Z,18.40
2018-01-22T03:03:53.647Z,18.47
2018-01-22T03:06:21.962Z,14.43
2018-01-22T03:08:50.295Z,22.07
2018-01-22T03:11:19.430Z,17.67
2018-01-22T03:13:47.884Z,22.20
2018-01-22T03:16:16.367Z,24.17
2018-01-22T03:18:44.703Z,22.73
2018-01-22T03:21:13.002Z,14.17
2018-01-22T03:23:41.387Z,30.03
2018-01-22T03:26:10.463Z,25.23
2018-01-22T03:28:38.779Z,26.53
2018-01-22T03:31:07.100Z,27.73
2018-01-22T03:33:35.404Z,29.17
2018-01-22T03:36:03.747Z,24.10
2018-01-22T03:38:32.064Z,14.93
2018-01-22T03:41:00.383Z,39.83
2018-01-22T03:43:28.697Z,24.10
2018-01-22T03:45:57.047Z,25.10
2018-01-22T03:48:25.363Z,23.37
2018-01-22T03:50:53.713Z,34.00
2018-01-22T03:53:22.052Z,29.93
2018-01-22T03:55:51.163Z,30.33
2018-01-22T03:58:19.479Z,37.40
2018-01-22T04:00:47.835Z,30.10
2018-01-22T04:03:16.151Z,33.07
2018-01-22T04:05:44.490Z,32.77
2018-01-22T04:08:12.799Z,30.97
2018-01-22T04:10:41.146Z,26.73
2018-01-22T04:13:09.455Z,35.60
2018-01-22T04:15:37.787Z,35.07
2018-01-22T04:18:06.103Z,32.50
2018-01-22T04:20:34.424Z,32.60
2018-01-22T04:23:03.524Z,25.40
2018-01-22T04:25:32.603Z,32.83
2018-01-22T04:28:00.944Z,23.73
2018-01-22T04:30:29.253Z,23.63
2018-01-22T04:32:57.593Z,27.80
2018-01-22T04:35:25.908Z,30.87
2018-01-22T04:37:54.251Z,32.70
2018-01-22T04:40:22.547Z,23.90
2018-01-22T04:42:50.880Z,28.10
2018-01-22T04:45:19.951Z,22.87
2018-01-22T04:47:48.302Z,25.90
2018-01-22T04:50:16.599Z,24.00
2018-01-22T04:52:44.950Z,24.00
2018-01-22T04:55:13.267Z,24.50
2018-01-22T04:57:41.600Z,24.07
2018-01-22T05:00:09.899Z,22.70
2018-01-22T05:02:38.247Z,24.03
2018-01-22T05:05:06.582Z,23.40
2018-01-22T05:07:34.899Z,23.57
2018-01-22T05:10:03.240Z,18.70
2018-01-22T05:12:31.555Z,20.50
2018-01-22T05:15:00.833Z,25.67
2018-01-22T05:17:29.915Z,20.10
2018-01-22T05:19:58.267Z,20.13
2018-01-22T05:22:26.586Z,24.07
2018-01-22T05:24:55.693Z,29.30
2018-01-22T05:27:24.783Z,27.43
2018-01-22T05:29:53.891Z,28.37
2018-01-22T05:32:22.215Z,22.43
2018-01-22T05:34:50.567Z,14.90
2018-01-22T05:37:18.877Z,19.73
2018-01-22T05:39:47.228Z,20.67
2018-01-22T05:42:15.552Z,20.27
2018-01-22T05:44:43.877Z,15.77
2018-01-22T05:47:12.206Z,20.70
2018-01-22T05:49:42.436Z,13.13
2018-01-22T05:52:10.776Z,21.97
2018-01-22T05:54:39.084Z,21.50
2018-01-22T05:57:07.419Z,17.17
2018-01-22T05:59:35.724Z,16.23
2018-01-22T06:02:04.058Z,24.93
2018-01-22T06:04:32.394Z,22.20
2018-01-22T06:07:04.079Z,23.20
2018-01-22T06:09:33.156Z,22.30
2018-01-22T06:12:01.499Z,22.07
2018-01-22T06:14:29.823Z,18.40
2018-01-22T06:16:58.929Z,21.70
2018-01-22T06:19:28.005Z,22.13
2018-01-22T06:21:56.341Z,20.77
2018-01-22T06:24:24.657Z,19.27
2018-01-22T06:26:52.987Z,20.63
2018-01-22T06:29:21.316Z,15.10
2018-01-22T06:31:49.664Z,26.43
2018-01-22T06:34:17.979Z,21.00
2018-01-22T06:36:46.332Z,17.03
2018-01-22T06:39:14.648Z,20.63
2018-01-22T06:41:43.747Z,20.00
2018-01-22T06:44:12.847Z,17.70
2018-01-22T06:46:41.959Z,17.00
2018-01-22T06:49:10.339Z,19.67
2018-01-22T06:51:39.437Z,17.40
2018-01-22T06:54:07.780Z,16.93
2018-01-22T06:56:36.102Z,17.80
2018-01-22T06:59:04.453Z,17.97
2018-01-22T07:01:33.530Z,16.03
2018-01-22T07:04:01.868Z,17.40
2018-01-22T07:06:30.192Z,21.10
2018-01-22T07:08:58.530Z,36.63
2018-01-22T07:11:26.893Z,13.20
2018-01-22T07:13:55.236Z,21.90
2018-01-22T07:16:24.330Z,25.57
2018-01-22T07:18:53.439Z,38.53
2018-01-22T07:21:22.527Z,20.73
2018-01-22T07:23:51.656Z,23.07
2018-01-22T07:26:19.986Z,19.70
2018-01-22T07:28:49.115Z,21.77
2018-01-22T07:31:18.197Z,19.40
2018-01-22T07:33:47.312Z,22.33
2018-01-22T07:36:15.633Z,23.70
2018-01-22T07:38:43.970Z,26.17
2018-01-22T07:41:12.288Z,24.60
2018-01-22T07:43:40.628Z,33.20
2018-01-22T07:46:08.954Z,35.70
2018-01-22T07:48:37.294Z,38.57
2018-01-22T07:51:05.625Z,36.97
2018-01-22T07:53:33.974Z,27.87
2018-01-22T07:56:02.309Z,24.60
2018-01-22T07:58:31.425Z,30.50
2018-01-22T08:00:59.740Z,27.53
2018-01-22T08:03:29.008Z,33.70
2018-01-22T08:05:57.331Z,40.77
2018-01-22T08:08:25.679Z,81.83
2018-01-22T08:10:54.003Z,56.20
2018-01-22T08:13:22.333Z,37.50
2018-01-22T08:15:50.676Z,34.27
2018-01-22T08:18:19.776Z,29.50
2018-01-22T08:20:48.144Z,33.37
2018-01-22T08:23:17.264Z,31.43
2018-01-22T08:25:45.652Z,39.03
2018-01-22T08:28:14.003Z,45.23
2018-01-22T08:30:42.393Z,35.43
2018-01-22T08:33:11.551Z,44.10
2018-01-22T08:35:39.958Z,41.83
2018-01-22T08:38:08.708Z,41.07
2018-01-22T08:40:52.363Z,56.10
2018-01-22T11:07:39.242Z,19.27
2018-01-22T11:10:28.003Z,14.73
2018-01-22T11:12:57.369Z,21.37
2018-01-22T11:15:31.604Z,14.23
2018-01-22T11:18:05.908Z,20.30
2018-01-22T11:20:39.150Z,17.23
2018-01-22T11:23:07.612Z,20.57
2018-01-22T11:25:40.349Z,25.13
2018-01-22T11:28:12.741Z,31.53
2018-01-22T11:30:42.013Z,27.10
2018-01-22T11:33:10.366Z,23.07
2018-01-22T11:35:38.797Z,21.17
2018-01-22T11:38:07.164Z,19.03
2018-01-22T11:40:35.566Z,26.43
2018-01-22T11:43:04.692Z,19.70
2018-01-22T11:45:33.901Z,26.63
2018-01-22T11:48:02.267Z,19.83
2018-01-22T11:50:30.717Z,19.27
2018-01-22T11:52:59.066Z,16.07
2018-01-22T11:55:27.455Z,16.87
2018-01-22T11:57:55.809Z,18.97
2018-01-22T12:00:24.234Z,18.80
2018-01-22T12:02:52.588Z,22.50
2018-01-22T12:05:20.955Z,17.27
2018-01-22T12:07:49.309Z,23.40
2018-01-22T12:10:17.688Z,53.17
2018-01-22T12:12:46.045Z,30.70
2018-01-22T12:15:14.438Z,47.23
2018-01-22T12:17:42.789Z,30.13
2018-01-22T12:20:11.939Z,25.87
2018-01-22T12:22:40.272Z,31.03
2018-01-22T12:25:09.414Z,21.07
2018-01-22T12:27:37.741Z,21.37
2018-01-22T12:30:06.945Z,28.33
2018-01-22T12:32:36.077Z,38.10
2018-01-22T12:35:04.455Z,45.40
2018-01-22T12:37:32.792Z,26.30
2018-01-22T12:40:01.163Z,21.57
2018-01-22T12:42:29.504Z,33.03
2018-01-22T12:44:57.886Z,19.73
2018-01-22T12:47:26.207Z,25.47
2018-01-22T12:49:54.568Z,35.60
2018-01-22T12:52:22.918Z,23.23
2018-01-22T12:54:51.296Z,16.33
2018-01-22T12:57:19.638Z,17.80
2018-01-22T12:59:48.825Z,18.03
2018-01-22T13:02:17.954Z,35.70
2018-01-22T13:04:46.527Z,30.93
2018-01-22T13:07:15.898Z,19.60
2018-01-22T13:09:44.305Z,19.40
2018-01-22T13:12:12.713Z,17.37
2018-01-22T13:14:41.204Z,15.60
2018-01-22T13:17:09.624Z,16.47
2018-01-22T13:19:38.836Z,16.70
2018-01-22T13:22:07.210Z,18.53
2018-01-22T13:24:35.572Z,18.50
2018-01-22T13:27:03.950Z,20.00
2018-01-22T13:29:32.318Z,19.00
2018-01-22T13:32:00.693Z,24.53
2018-01-22T13:34:29.158Z,19.90
2018-01-22T13:36:57.542Z,19.07
2018-01-22T13:39:25.911Z,19.70
2018-01-22T13:41:54.247Z,25.77
2018-01-22T13:44:22.589Z,29.57
2018-01-22T13:46:50.990Z,34.10
2018-01-22T13:49:19.350Z,22.83
2018-01-22T13:51:47.712Z,20.67
2018-01-22T13:54:16.105Z,17.90
2018-01-22T13:56:44.511Z,22.57
2018-01-22T13:59:12.864Z,24.53
2018-01-22T14:01:41.304Z,27.57
2018-01-22T14:04:09.693Z,30.10
2018-01-22T14:06:38.090Z,22.23
2018-01-22T14:09:06.441Z,20.63
2018-01-22T14:11:35.565Z,34.53
2018-01-22T14:14:03.900Z,31.57
2018-01-22T14:16:33.083Z,36.40
2018-01-22T14:19:01.439Z,36.23
2018-01-22T14:21:29.812Z,31.60
2018-01-22T14:23:58.148Z,32.73
2018-01-22T14:26:26.566Z,29.77
2018-01-22T14:28:54.940Z,35.60
2018-01-22T14:31:23.315Z,35.60
2018-01-22T14:33:51.672Z,30.37
2018-01-22T14:36:20.794Z,34.27
2018-01-22T14:38:49.127Z,27.50
2018-01-22T14:41:17.490Z,26.87
2018-01-22T14:43:45.849Z,23.97
2018-01-22T14:46:14.222Z,21.53
2018-01-22T14:48:42.556Z,23.33
2018-01-22T14:51:10.918Z,22.03
2018-01-22T14:53:39.262Z,22.63
2018-01-22T14:56:07.642Z,21.43
2018-01-22T14:58:35.981Z,24.60
2018-01-22T15:01:05.112Z,20.90
2018-01-22T15:03:33.450Z,22.40
2018-01-22T15:06:01.884Z,27.97
2018-01-22T15:08:30.294Z,37.20
2018-01-22T15:10:58.657Z,39.90
2018-01-22T15:13:27.002Z,44.03
2018-01-22T15:15:55.379Z,43.47
2018-01-22T15:18:23.731Z,40.53
2018-01-22T15:20:52.837Z,34.07
2018-01-22T15:23:21.173Z,37.00
2018-01-22T15:25:49.511Z,34.80
2018-01-22T15:28:17.867Z,32.70
2018-01-22T15:30:47.017Z,32.60
2018-01-22T15:33:15.366Z,34.30
2018-01-22T15:35:43.713Z,29.70
2018-01-22T15:38:12.194Z,42.33
2018-01-22T15:40:40.611Z,29.80
2018-01-22T15:43:08.964Z,36.27
2018-01-22T15:45:38.104Z,40.73
2018-01-22T15:48:06.478Z,38.90
2018-01-22T15:50:34.855Z,39.33
2018-01-22T15:53:03.245Z,38.00
2018-01-22T15:55:31.593Z,41.10
2018-01-22T15:58:00.730Z,39.10
2018-01-22T16:00:29.095Z,29.33
2018-01-22T16:02:57.444Z,33.10
2018-01-22T16:05:26.544Z,39.37
2018-01-22T16:07:54.942Z,34.57
2018-01-22T16:10:23.273Z,24.00
2018-01-22T16:12:52.424Z,37.80
2018-01-22T16:15:20.744Z,43.23
2018-01-22T16:17:49.116Z,31.30
2018-01-22T16:20:17.470Z,30.00
2018-01-22T16:22:46.620Z,29.97
2018-01-22T16:25:15.723Z,34.00
2018-01-22T16:27:44.079Z,28.63
2018-01-22T16:30:12.423Z,35.93
2018-01-22T16:32:40.789Z,34.47
2018-01-22T16:35:09.151Z,35.13
2018-01-22T16:37:37.569Z,34.50
2018-01-22T16:40:05.914Z,43.60
2018-01-22T16:42:34.283Z,38.53
2018-01-22T16:45:02.679Z,42.27
2018-01-22T16:47:36.788Z,57.37
2018-01-22T16:50:05.198Z,80.70
2018-01-22T16:52:34.352Z,81.83
2018-01-22T16:55:03.024Z,37.40
2018-01-22T16:57:31.541Z,30.50
2018-01-22T16:59:59.935Z,29.60
2018-01-22T17:02:28.342Z,33.80
2018-01-22T17:04:56.713Z,30.10
2018-01-22T17:07:25.125Z,34.03
2018-01-22T17:09:53.494Z,37.23
2018-01-22T17:12:21.909Z,40.30
2018-01-22T17:14:50.299Z,28.37
2018-01-22T17:17:18.650Z,31.40
2018-01-22T17:19:47.143Z,44.93
2018-01-22T17:22:15.556Z,40.00
2018-01-22T17:24:43.933Z,33.47
2018-01-22T17:27:12.300Z,28.30
2018-01-22T17:29:40.653Z,32.47
2018-01-22T17:32:08.991Z,26.97
2018-01-22T17:34:37.324Z,33.73
2018-01-22T17:37:05.749Z,31.67
2018-01-22T17:39:34.305Z,32.27
2018-01-22T17:42:02.754Z,27.63
2018-01-22T17:44:31.893Z,29.10
2018-01-22T17:47:00.298Z,29.93
2018-01-22T17:49:28.631Z,30.60
2018-01-22T17:51:57.068Z,32.30
2018-01-22T17:54:25.465Z,33.10
2018-01-22T17:56:53.997Z,34.33
2018-01-22T17:59:22.333Z,34.10
2018-01-22T18:01:51.471Z,40.00
2018-01-22T18:04:20.834Z,35.10
2018-01-22T18:06:50.045Z,35.20
2018-01-22T18:09:19.180Z,33.30
2018-01-22T18:11:47.602Z,38.37
2018-01-22T18:14:15.983Z,42.43
2018-01-22T18:16:44.392Z,43.80
2018-01-22T18:19:12.756Z,38.70
2018-01-22T18:21:41.153Z,40.23
2018-01-22T18:24:09.551Z,41.80
2018-01-22T18:26:37.935Z,40.80
2018-01-22T18:29:06.293Z,43.87
2018-01-22T18:31:34.726Z,51.33
2018-01-22T18:34:03.105Z,45.53
2018-01-22T18:36:31.576Z,41.00
2018-01-22T18:38:59.908Z,45.27
2018-01-22T18:41:28.250Z,87.93
2018-01-22T18:43:57.452Z,89.77
2018-01-22T18:46:25.832Z,64.60
2018-01-22T18:48:55.182Z,56.53
2018-01-22T18:51:23.557Z,50.70
2018-01-22T18:53:52.040Z,59.20
2018-01-22T18:56:20.491Z,46.93
2018-01-22T18:58:48.890Z,43.17
2018-01-22T19:01:17.244Z,45.33
2018-01-22T19:03:45.627Z,35.43
2018-01-22T19:06:14.807Z,41.70
2018-01-22T19:08:43.221Z,48.10
2018-01-22T19:11:11.622Z,48.40
2018-01-22T19:13:40.031Z,39.97
2018-01-22T19:16:08.364Z,46.60
2018-01-22T19:18:38.651Z,44.43
2018-01-22T19:21:07.094Z,50.83
2018-01-22T19:23:35.551Z,43.27
2018-01-22T19:26:03.965Z,51.63
2018-01-22T19:28:32.410Z,54.40
2018-01-22T19:31:02.492Z,58.47
2018-01-22T19:33:30.934Z,63.43
2018-01-22T19:35:59.326Z,61.13
2018-01-22T19:38:27.822Z,62.33
2018-01-22T19:40:56.184Z,55.27
2018-01-22T19:43:26.282Z,68.53
2018-01-22T19:45:54.882Z,48.17
2018-01-22T19:48:23.345Z,52.83
2018-01-22T19:50:51.844Z,47.60
2018-01-22T19:53:20.224Z,49.33
2018-01-22T19:55:48.556Z,44.63
2018-01-22T19:58:17.001Z,47.93
2018-01-22T20:00:46.208Z,45.20
2018-01-22T20:03:15.380Z,47.50
2018-01-22T20:05:43.822Z,44.03
2018-01-22T20:08:12.284Z,47.30
2018-01-22T20:10:40.767Z,40.67
2018-01-22T20:13:09.327Z,58.87
2018-01-22T20:15:37.778Z,48.93
2018-01-22T20:18:06.256Z,45.80
2018-01-22T20:20:34.716Z,48.10
2018-01-22T20:23:03.890Z,43.90
2018-01-22T20:25:33.093Z,39.47
2018-01-22T20:28:01.448Z,38.30
2018-01-22T20:30:29.856Z,42.37
2018-01-22T20:32:58.275Z,35.13
2018-01-22T20:35:27.550Z,47.53
2018-01-22T20:37:56.011Z,45.30
2018-01-22T20:40:24.404Z,42.30
2018-01-22T20:42:53.158Z,37.60
2018-01-22T20:45:21.640Z,28.47
2018-01-22T20:47:50.070Z,31.70
2018-01-22T20:50:18.449Z,29.40
2018-01-22T20:52:46.840Z,23.90
2018-01-22T20:55:16.026Z,31.03
2018-01-22T20:57:44.449Z,32.53
2018-01-22T21:00:13.013Z,22.90
2018-01-22T21:02:41.484Z,26.67
2018-01-22T21:05:09.929Z,27.97
2018-01-22T21:07:38.459Z,32.13
2018-01-22T21:10:17.578Z,23.70
2018-01-22T21:15:26.422Z,22.73
2018-01-22T21:17:54.884Z,22.73
2018-01-22T21:20:23.352Z,16.33
2018-01-22T21:22:52.606Z,22.90
2018-01-22T21:25:21.258Z,21.03
2018-01-22T21:27:50.449Z,17.90
2018-01-22T21:30:18.969Z,16.77
2018-01-22T21:32:47.508Z,17.00
2018-01-22T21:35:15.939Z,23.23
2018-01-22T21:37:45.251Z,17.53
2018-01-22T21:40:13.732Z,14.30
2018-01-22T21:42:42.132Z,18.73
2018-01-22T21:45:10.532Z,14.60
2018-01-22T21:47:38.936Z,17.13
2018-01-22T21:50:07.319Z,14.00
2018-01-22T21:52:36.504Z,15.43
2018-01-22T21:55:04.861Z,20.43
2018-01-22T21:57:33.324Z,23.73
2018-01-22T22:00:01.700Z,28.40
2018-01-22T22:02:30.131Z,28.97
2018-01-22T22:04:59.296Z,30.00
2018-01-22T22:07:27.719Z,27.90
2018-01-22T22:09:56.149Z,27.17
2018-01-22T22:12:24.590Z,25.23
2018-01-22T22:14:53.744Z,31.87
2018-01-22T22:17:22.152Z,33.80
2018-01-22T22:19:51.334Z,27.87
2018-01-22T22:22:20.538Z,22.90
2018-01-22T22:24:49.779Z,35.57
2018-01-22T22:27:18.172Z,23.50
2018-01-22T22:29:46.571Z,24.87
2018-01-22T22:32:15.044Z,28.30
2018-01-22T22:34:43.448Z,27.90
2018-01-22T22:37:11.857Z,27.17
2018-01-22T22:39:40.236Z,27.77
2018-01-22T22:42:09.528Z,31.07
2018-01-22T22:44:38.080Z,26.40
2018-01-22T22:47:07.348Z,34.50
2018-01-22T22:49:35.735Z,31.50
2018-01-22T22:52:04.131Z,31.27
2018-01-22T22:54:32.504Z,29.70
2018-01-22T22:57:00.875Z,38.80
2018-01-22T22:59:29.279Z,30.90
2018-01-22T23:01:57.698Z,32.53
2018-01-22T23:04:26.861Z,33.90
2018-01-22T23:06:55.244Z,31.30
2018-01-22T23:09:24.396Z,32.53
2018-01-22T23:11:52.820Z,28.03
2018-01-22T23:14:21.180Z,33.73
2018-01-22T23:16:49.610Z,30.10
2018-01-22T23:19:17.981Z,29.93
2018-01-22T23:21:46.392Z,28.87
2018-01-22T23:24:14.734Z,24.60
2018-01-22T23:26:43.108Z,31.27
2018-01-22T23:29:11.500Z,29.10
2018-01-22T23:31:39.928Z,26.13
2018-01-22T23:34:08.461Z,30.63
2018-01-22T23:36:37.034Z,29.20
2018-01-22T23:39:05.605Z,30.73
2018-01-22T23:41:34.779Z,33.90
2018-01-22T23:44:04.230Z,30.23
2018-01-22T23:46:32.729Z,28.30
2018-01-22T23:49:01.875Z,25.17
2018-01-22T23:51:31.077Z,31.17
2018-01-22T23:53:59.500Z,30.27
2018-01-22T23:56:27.921Z,31.53
2018-01-22T23:58:56.348Z,37.80
